Buffalo (BUF/KBUF)

Information

Location
Buffalo, NY
Local Time
19:25 / 7:25 pm
GMT Time
00:25 / 12:25 am
Gates
Unassigned
No FAA reported delays
METAR KBUF 222354Z 23005KT 6SM BR OVC017 12/09 A2980 RMK AO2 SLP095 T01170094 10139 20117 55006
TAF KBUF 222339Z 2300/2324 21006KT 4SM BR BKN015 FM230800 22008KT 2SM BR OVC008 FM231400 24016G24KT 1/2SM FG OVC003 FM231900 26008KT P6SM BKN015
  • No charts available